Huvudsida
METAR-TAF:

METAR-TAF

Flygplatser :

Keflavíks internationella flygplats

Keflavik, Island

latitud: 63-58N, longitud: 022-36W, höjd: 52 m

Aktuellt väderrapport

Denna rapport gjordes för 35 minuter sedan, klockan 19:00 UTC
Vind 12 kt från väst/nordväst
Temperatur 11°C
Fuktighet 71%
Tryck 1014 hPa
Sikt 10 km eller mer
Få moln på en höjd av 3300 ft
Spridda moln på en höjd av 26000 ft

METAR: BIKF 141900Z 30012KT 9999 FEW033 SCT260 11/06 Q1014

Tid: 19:35 (19:35 UTC)

Väderprognos

Denna rapport gjordes för 3 timmar och 23 minuter sedan, klockan 16:12 UTC
Prognos gäller från 14 kl. 18 UTC till 15 kl. 18 UTC
Vind 10 kt från väst/nordväst
Sikt 10 km eller mer
Brutna moln på en höjd av 3000 ft
Sannolikhet 40% :
Temporärt
från 15 kl. 00 UTC till 15 kl. 06 UTC
Sikt: 1500 m
Mulet på en höjd av 400 ft
fuktdis,

TAF: BIKF 141612Z 1418/1518 30010KT 9999 BKN030 TX16/1517Z TN08/1504Z PROB40 TEMPO 1500/1506 1500 BR OVC004

Aktuella väderrapporter och prognoser från 4000 flygplatser (METAR- och TAF-rapporter).

De tillgängliga stationerna syns som gula och röda prickar på kartan.

För musen över prickarna för att se namnen på stationerna.

Klicka sedan för att få väderrapporter och prognoser.

För att ändra kartan: Klicka på de gröna knapparna med ett svart kors på för att zooma in; den gröna knappen med ett streck på för att zooma ut; eller på de gröna pilarna för angränsande kartor.


METAR-TAF: